This is the latest recevied weather packets stored in our database for station/object VK5KX. If no packets are shown the sender has not sent any weather packets the latest 10 day(s).
| Time | Temp. | Humidity | Pressure | Rain* | Wind** | Luminosity | Snow |
|---|---|---|---|---|---|---|---|
| 1777803304 | 15.56° C | 80% | 1012.3 hPa | 0 mm | - | - | - |
| 1777802403 | 16.11° C | 77% | 1012 hPa | 0 mm | - | - | - |
| 1777801511 | 16.11° C | 76% | 1012.1 hPa | 0 mm | - | - | - |
| 1777800602 | 16.11° C | 76% | 1012 hPa | 0 mm | - | - | - |
| 1777799702 | 16.11° C | 74% | 1011.9 hPa | 0 mm | - | - | - |
| 1777798802 | 16.11° C | 75% | 1011.8 hPa | 0 mm | - | - | - |
| 1777797903 | 16.11° C | 75% | 1011.7 hPa | 0 mm | - | - | - |
| 1777797003 | 16.67° C | 76% | 1011.5 hPa | 0 mm | - | - | - |
| 1777796180 | 16.67° C | 75% | 1011.3 hPa | 0 mm | - | - | - |
| 1777795264 | 16.67° C | 74% | 1011.1 hPa | 0 mm | - | - | - |
| 1777794363 | 16.67° C | 73% | 1011 hPa | 0 mm | - | - | - |
| 1777793466 | 16.67° C | 74% | 1011.2 hPa | 0 mm | - | - | - |
| 1777792569 | 16.67° C | 74% | 1011.2 hPa | 0 mm | - | - | - |
| 1777791663 | 16.67° C | 73% | 1011.1 hPa | 0 mm | - | - | - |
| 1777790757 | 16.11° C | 74% | 1011.2 hPa | 0 mm | - | - | - |
| 1777789871 | 16.67° C | 74% | 1011.3 hPa | 0 mm | - | - | - |
| 1777788957 | 17.78° C | 68% | 1011.3 hPa | 0 mm | - | - | - |
| 1777788063 | 18.33° C | 58% | 1010.8 hPa | 0 mm | - | - | - |
| 1777787157 | 19.44° C | 59% | 1010.7 hPa | 0 mm | - | - | - |
| 1777786253 | 18.89° C | 56% | 1010.7 hPa | 0 mm | - | - | - |
| 1777785358 | 18.89° C | 60% | 1010.7 hPa | 0 mm | - | - | - |
| 1777784451 | 19.44° C | 56% | 1010.7 hPa | 0 mm | - | - | - |
| 1777783550 | 18.89° C | 58% | 1010.6 hPa | 0 mm | - | - | - |
| 1777782652 | 18.89° C | 57% | 1010.6 hPa | 0 mm | - | - | - |
| 1777781748 | 19.44° C | 58% | 1010.6 hPa | 0 mm | - | - | - |
* Rain latest hour (hover to see other rain measurements)
** Current wind speed in m/s (hover to see current wind gust speed)